createdAt,value
2023-09-24T00:02:23.432Z,99709.19
2023-09-24T00:04:50.020Z,99713.75
2023-09-24T00:07:16.602Z,99717.50
2023-09-24T00:09:43.221Z,99722.28
2023-09-24T00:12:09.766Z,99718.75
2023-09-24T00:14:36.406Z,99715.63
2023-09-24T00:17:02.992Z,99707.06
2023-09-24T00:19:29.539Z,99690.59
2023-09-24T00:21:56.094Z,99700.84
2023-09-24T00:24:22.574Z,99715.81
2023-09-24T00:26:49.094Z,99709.97
2023-09-24T00:29:15.718Z,99727.94
2023-09-24T00:31:42.238Z,99730.00
2023-09-24T00:34:09.505Z,99724.56
2023-09-24T00:36:36.759Z,99726.25
2023-09-24T00:39:03.723Z,99749.00
2023-09-24T00:41:30.452Z,99758.16
2023-09-24T00:43:58.986Z,99754.41
2023-09-24T00:46:26.703Z,99758.78
2023-09-24T00:48:55.471Z,99752.94
2023-09-24T00:51:24.055Z,99752.09
2023-09-24T00:53:55.611Z,99740.22
2023-09-24T00:56:23.021Z,99732.06
2023-09-24T00:58:52.062Z,99738.78
2023-09-24T01:01:18.934Z,99738.78
2023-09-24T01:03:48.548Z,99723.75
2023-09-24T01:06:15.975Z,99723.09
2023-09-24T01:08:43.846Z,99731.25
2023-09-24T01:11:10.981Z,99720.38
2023-09-24T01:13:45.674Z,99719.56
2023-09-24T01:16:12.844Z,99721.66
2023-09-24T01:18:41.204Z,99721.22
2023-09-24T01:21:16.483Z,99733.34
2023-09-24T01:23:47.188Z,99727.69
2023-09-24T01:26:14.725Z,99726.25
2023-09-24T01:28:42.000Z,99731.66
2023-09-24T01:31:09.408Z,99740.41
2023-09-24T01:33:39.911Z,99745.81
2023-09-24T01:36:10.354Z,99761.47
2023-09-24T01:38:41.570Z,99762.31
2023-09-24T01:41:12.281Z,99756.25
2023-09-24T01:43:47.075Z,99752.50
2023-09-24T01:46:15.644Z,99743.13
2023-09-24T01:48:44.734Z,99734.97
2023-09-24T01:51:12.184Z,99730.63
2023-09-24T01:53:40.259Z,99743.34
2023-09-24T01:56:07.312Z,99746.47
2023-09-24T01:58:34.050Z,99737.94
2023-09-24T02:01:03.448Z,99738.75
2023-09-24T02:03:31.036Z,99736.25
2023-09-24T02:05:58.684Z,99735.59
2023-09-24T02:08:25.323Z,99737.94
2023-09-24T02:10:51.948Z,99743.94
2023-09-24T02:13:21.515Z,99750.19
2023-09-24T02:15:49.580Z,99751.25
2023-09-24T02:18:17.464Z,99738.75
2023-09-24T02:20:48.301Z,99737.47
2023-09-24T02:23:17.783Z,99727.06
2023-09-24T02:25:46.581Z,99718.94
2023-09-24T02:28:15.179Z,99722.06
2023-09-24T02:30:41.968Z,99720.63
2023-09-24T02:33:08.998Z,99722.25
2023-09-24T02:35:36.448Z,99728.50
2023-09-24T02:38:05.855Z,99734.97
2023-09-24T02:40:33.128Z,99729.56
2023-09-24T02:43:01.924Z,99746.25
2023-09-24T02:45:30.871Z,99748.13
2023-09-24T02:47:58.280Z,99741.44
2023-09-24T02:50:27.125Z,99747.91
2023-09-24T02:52:58.574Z,99749.38
2023-09-24T02:55:25.946Z,99759.81
2023-09-24T02:57:52.673Z,99740.63
2023-09-24T03:00:22.317Z,99730.81
2023-09-24T03:02:49.723Z,99728.94
2023-09-24T03:05:21.884Z,99719.53
2023-09-24T03:07:48.792Z,99705.78
2023-09-24T03:10:15.542Z,99708.31
2023-09-24T03:12:42.102Z,99701.00
2023-09-24T03:15:11.420Z,99692.03
2023-09-24T03:17:42.136Z,99691.19
2023-09-24T03:20:16.417Z,99686.59
2023-09-24T03:22:49.707Z,99675.13
2023-09-24T03:25:21.578Z,99687.44
2023-09-24T03:27:49.746Z,99690.16
2023-09-24T03:30:18.648Z,99696.22
2023-09-24T03:32:46.859Z,99710.19
2023-09-24T03:35:14.936Z,99718.31
2023-09-24T03:37:44.893Z,99727.47
2023-09-24T03:40:13.698Z,99729.16
2023-09-24T03:42:40.776Z,99725.81
2023-09-24T03:45:09.848Z,99715.81
2023-09-24T03:47:37.614Z,99711.22
2023-09-24T03:50:05.519Z,99729.56
2023-09-24T03:52:32.145Z,99726.66
2023-09-24T03:55:00.866Z,99720.63
2023-09-24T03:57:30.944Z,99727.91
2023-09-24T03:59:58.904Z,99724.56
2023-09-24T04:02:27.970Z,99727.91
2023-09-24T04:04:54.767Z,99732.50
2023-09-24T04:07:21.893Z,99724.13
2023-09-24T04:09:51.741Z,99724.56
2023-09-24T04:12:18.411Z,99734.97
2023-09-24T04:14:44.971Z,99739.78
2023-09-24T04:17:11.477Z,99739.78
2023-09-24T04:19:38.057Z,99746.66
2023-09-24T04:22:04.976Z,99741.25
2023-09-24T04:24:31.441Z,99746.25
2023-09-24T04:26:58.042Z,99742.31
2023-09-24T04:29:24.881Z,99751.25
2023-09-24T04:31:51.658Z,99752.91
2023-09-24T04:34:20.937Z,99755.22
2023-09-24T04:36:49.339Z,99758.34
2023-09-24T04:39:16.530Z,99759.63
2023-09-24T04:41:44.491Z,99766.72
2023-09-24T04:44:11.047Z,99764.81
2023-09-24T04:46:37.703Z,99762.09
2023-09-24T04:49:06.254Z,99764.63
2023-09-24T04:51:35.891Z,99754.41
2023-09-24T04:54:03.681Z,99762.09
2023-09-24T04:56:30.918Z,99755.44
2023-09-24T04:58:57.619Z,99756.06
2023-09-24T05:01:24.259Z,99758.16
2023-09-24T05:03:52.406Z,99763.16
2023-09-24T05:06:20.101Z,99762.94
2023-09-24T05:08:47.741Z,99762.09
2023-09-24T05:11:14.696Z,99727.91
2023-09-24T05:13:45.405Z,99756.47
2023-09-24T05:16:12.354Z,99752.91
2023-09-24T05:18:39.031Z,99756.91
2023-09-24T05:21:14.516Z,99768.81
2023-09-24T05:23:41.068Z,99763.38
2023-09-24T05:26:14.584Z,99765.06
2023-09-24T05:28:41.973Z,99769.44
2023-09-24T05:31:09.011Z,99769.22
2023-09-24T05:33:35.656Z,99777.97
2023-09-24T05:36:02.639Z,99778.63
2023-09-24T05:38:30.820Z,99779.03
2023-09-24T05:40:58.442Z,99785.50
2023-09-24T05:43:25.090Z,99784.44
2023-09-24T05:45:51.769Z,99781.75
2023-09-24T05:48:20.323Z,99788.84
2023-09-24T05:50:47.891Z,99792.78
2023-09-24T05:53:15.668Z,99796.81
2023-09-24T05:55:53.295Z,99800.97
2023-09-24T05:58:22.042Z,99809.09
2023-09-24T06:00:48.696Z,99809.75
2023-09-24T06:03:15.848Z,99816.00
2023-09-24T06:05:42.584Z,99813.28
2023-09-24T06:08:09.274Z,99827.91
2023-09-24T06:10:38.793Z,99822.47
2023-09-24T06:13:05.303Z,99823.13
2023-09-24T06:15:31.898Z,99827.69
2023-09-24T06:17:58.874Z,99834.56
2023-09-24T06:20:26.353Z,99837.91
2023-09-24T06:22:54.843Z,99835.00
2023-09-24T06:25:21.791Z,99831.06
2023-09-24T06:27:48.392Z,99831.47
2023-09-24T06:30:15.487Z,99828.53
2023-09-24T06:32:42.131Z,99827.06
2023-09-24T06:35:09.117Z,99831.25
2023-09-24T06:37:35.662Z,99839.19
2023-09-24T06:40:02.223Z,99848.97
2023-09-24T06:42:28.749Z,99851.94
2023-09-24T06:44:55.415Z,99860.91
2023-09-24T06:47:22.227Z,99861.31
2023-09-24T06:49:50.702Z,99866.13
2023-09-24T06:52:17.784Z,99874.69
2023-09-24T06:54:44.726Z,99869.66
2023-09-24T06:57:11.319Z,99876.97
2023-09-24T06:59:37.899Z,99864.44
2023-09-24T07:02:04.445Z,99874.47
2023-09-24T07:04:31.098Z,99879.69
2023-09-24T07:06:57.875Z,99881.16
2023-09-24T07:09:24.382Z,99894.09
2023-09-24T07:11:51.283Z,99890.16
2023-09-24T07:14:20.297Z,99889.13
2023-09-24T07:16:48.411Z,99886.41
2023-09-24T07:19:14.967Z,99889.31
2023-09-24T07:21:41.673Z,99881.78
2023-09-24T07:24:09.627Z,99878.84
2023-09-24T07:26:36.360Z,99888.03
2023-09-24T07:29:03.016Z,99894.94
2023-09-24T07:31:31.854Z,99894.75
2023-09-24T07:34:00.866Z,99903.50
2023-09-24T07:36:33.937Z,99897.25
2023-09-24T07:39:05.778Z,99905.41
2023-09-24T07:41:32.560Z,99906.00
2023-09-24T07:43:59.111Z,99902.88
2023-09-24T07:46:25.613Z,99899.31
2023-09-24T07:48:52.251Z,99904.56
2023-09-24T07:51:18.861Z,99906.66
2023-09-24T07:53:48.964Z,99902.47
2023-09-24T07:56:15.744Z,99915.00
2023-09-24T07:58:43.392Z,99904.56
2023-09-24T08:01:11.944Z,99913.78
2023-09-24T08:03:39.221Z,99920.88
2023-09-24T08:06:07.008Z,99913.34
2023-09-24T08:08:49.900Z,99918.78
2023-09-24T08:11:18.594Z,99916.06
2023-09-24T08:13:45.428Z,99924.41
2023-09-24T08:16:12.270Z,99917.50
2023-09-24T08:18:39.060Z,99917.31
2023-09-24T08:21:05.942Z,99926.31
2023-09-24T08:23:33.002Z,99919.41
2023-09-24T08:26:00.696Z,99918.16
2023-09-24T08:28:27.276Z,99928.16
2023-09-24T08:30:54.303Z,99929.59
2023-09-24T08:33:20.900Z,99927.09
2023-09-24T08:35:47.704Z,99931.72
2023-09-24T08:38:17.214Z,99914.16
2023-09-24T08:40:43.807Z,99930.47
2023-09-24T08:43:15.708Z,99936.09
2023-09-24T08:45:43.024Z,99936.94
2023-09-24T08:48:10.450Z,99932.34
2023-09-24T08:50:43.127Z,99935.91
2023-09-24T08:53:14.084Z,99945.31
2023-09-24T08:55:48.072Z,99948.44
2023-09-24T08:58:14.640Z,99954.72
2023-09-24T09:00:43.430Z,99948.84
2023-09-24T09:03:10.310Z,99947.78
2023-09-24T09:05:39.977Z,99944.88
2023-09-24T09:08:06.846Z,99939.44
2023-09-24T09:10:35.310Z,99943.03
2023-09-24T09:13:09.953Z,99953.50
2023-09-24T09:15:39.078Z,99954.28
2023-09-24T09:18:06.087Z,99957.84
2023-09-24T09:20:45.694Z,99962.03
2023-09-24T09:23:19.347Z,99965.59
2023-09-24T09:25:51.438Z,99968.94
2023-09-24T09:28:24.785Z,99963.91
2023-09-24T09:31:06.869Z,99971.03
2023-09-24T09:33:38.859Z,99968.31
2023-09-24T09:36:05.860Z,99963.53
2023-09-24T09:38:32.452Z,99974.34
2023-09-24T09:41:00.009Z,99981.06
2023-09-24T09:43:29.097Z,99989.22
2023-09-24T09:45:56.614Z,99985.22
2023-09-24T09:48:28.735Z,99976.84
2023-09-24T09:51:00.870Z,99983.97
2023-09-24T09:53:32.287Z,99993.59
2023-09-24T09:56:05.878Z,99990.69
2023-09-24T09:58:37.566Z,99984.63
2023-09-24T10:01:08.786Z,99996.97
2023-09-24T10:03:42.483Z,100009.72
2023-09-24T10:06:11.387Z,100003.44
2023-09-24T10:08:43.033Z,100007.59
2023-09-24T10:11:12.102Z,100011.34
2023-09-24T10:13:47.410Z,100012.63
2023-09-24T10:16:37.091Z,99999.44
2023-09-24T10:19:09.445Z,100010.75
2023-09-24T10:21:44.328Z,100008.44
2023-09-24T10:24:11.000Z,100011.16
2023-09-24T10:27:02.627Z,100005.31
2023-09-24T10:29:47.464Z,100016.38
2023-09-24T10:32:15.527Z,100019.94
2023-09-24T10:34:58.804Z,100015.16
2023-09-24T10:37:26.107Z,100021.16
2023-09-24T10:40:14.704Z,100008.88
2023-09-24T10:42:45.647Z,100011.59
2023-09-24T10:45:13.297Z,100021.19
2023-09-24T10:47:44.380Z,100019.94
2023-09-24T10:50:19.017Z,100019.50
2023-09-24T10:53:00.065Z,100022.22
2023-09-24T10:55:34.698Z,100018.69
2023-09-24T10:58:05.100Z,100015.97
2023-09-24T11:00:33.284Z,100023.28
2023-09-24T11:03:02.476Z,100018.69
2023-09-24T11:05:30.631Z,100023.28
2023-09-24T11:07:57.987Z,100017.88
2023-09-24T11:10:26.605Z,100028.50
2023-09-24T11:12:55.132Z,100021.19
2023-09-24T11:15:24.382Z,100027.66
2023-09-24T11:17:52.224Z,100023.06
2023-09-24T11:20:22.079Z,100032.06
2023-09-24T11:23:10.282Z,100028.50
2023-09-24T11:25:37.671Z,100030.81
2023-09-24T11:28:06.048Z,100031.66
2023-09-24T11:30:46.718Z,100037.09
2023-09-24T11:33:21.964Z,100047.53
2023-09-24T11:35:52.618Z,100040.44
2023-09-24T11:38:35.574Z,100042.94
2023-09-24T11:41:14.087Z,100030.19
2023-09-24T11:43:42.150Z,100027.06
2023-09-24T11:46:27.040Z,100042.09
2023-09-24T11:48:54.193Z,100046.69
2023-09-24T11:51:24.364Z,100042.53
2023-09-24T11:53:51.619Z,100039.38
2023-09-24T11:56:18.399Z,100027.06
2023-09-24T11:58:44.993Z,100031.66
2023-09-24T12:01:13.473Z,100037.50
2023-09-24T12:03:41.067Z,100043.56
2023-09-24T12:06:08.295Z,100048.59
2023-09-24T12:08:36.507Z,100056.75
2023-09-24T12:11:03.162Z,100061.75
2023-09-24T12:13:31.036Z,100070.31
2023-09-24T12:15:57.660Z,100078.03
2023-09-24T12:18:24.356Z,100069.69
2023-09-24T12:20:51.009Z,100076.81
2023-09-24T12:23:18.010Z,100079.72
2023-09-24T12:25:45.144Z,100067.59
2023-09-24T12:28:15.171Z,100069.25
2023-09-24T12:30:42.058Z,100067.59
2023-09-24T12:33:12.922Z,100056.50
2023-09-24T12:35:42.006Z,100061.53
2023-09-24T12:38:09.916Z,100047.31
2023-09-24T12:40:36.565Z,100049.63
2023-09-24T12:43:03.655Z,100059.22
2023-09-24T12:45:30.266Z,100056.13
2023-09-24T12:47:56.876Z,100038.13
2023-09-24T12:50:23.482Z,100039.59
2023-09-24T12:52:50.029Z,100029.97
2023-09-24T12:55:17.909Z,100027.06
2023-09-24T12:57:46.436Z,100039.16
2023-09-24T13:00:14.108Z,100046.69
2023-09-24T13:02:45.342Z,100041.03
2023-09-24T13:05:19.013Z,100045.44
2023-09-24T13:07:47.570Z,100048.81
2023-09-24T13:10:16.355Z,100035.00
2023-09-24T13:12:44.568Z,100045.25
2023-09-24T13:15:12.311Z,100046.09
2023-09-24T13:17:39.714Z,100047.97
2023-09-24T13:20:06.743Z,100060.28
2023-09-24T13:22:34.101Z,100067.81
2023-09-24T13:25:00.698Z,100071.59
2023-09-24T13:27:27.255Z,100069.25
2023-09-24T13:29:54.136Z,100064.25
2023-09-24T13:32:22.250Z,100074.69
2023-09-24T13:34:49.171Z,100072.81
2023-09-24T13:37:15.759Z,100078.47
2023-09-24T13:39:42.823Z,100087.81
2023-09-24T13:42:09.420Z,100095.31
2023-09-24T13:44:36.414Z,100099.69
2023-09-24T13:47:03.108Z,100106.38
2023-09-24T13:49:29.713Z,100097.59
2023-09-24T13:51:56.193Z,100104.25
2023-09-24T13:54:22.836Z,100094.88
2023-09-24T13:56:49.405Z,100102.00
2023-09-24T13:59:16.105Z,100096.34
2023-09-24T14:01:42.668Z,100092.81
2023-09-24T14:04:09.351Z,100098.47
2023-09-24T14:06:36.047Z,100094.72
2023-09-24T14:09:21.143Z,100101.22
2023-09-24T14:12:06.333Z,100089.69
2023-09-24T14:14:32.909Z,100098.25
2023-09-24T14:16:59.434Z,100102.50
2023-09-24T14:19:25.924Z,100098.09
2023-09-24T14:21:52.465Z,100108.97
2023-09-24T14:24:18.961Z,100090.59
2023-09-24T14:26:45.608Z,100123.41
2023-09-24T14:29:12.110Z,100130.53
2023-09-24T14:31:38.774Z,100128.84
2023-09-24T14:34:05.343Z,100127.16
2023-09-24T14:36:31.928Z,100120.69
2023-09-24T14:39:01.071Z,100107.31
2023-09-24T14:41:27.858Z,100099.16
2023-09-24T14:43:54.407Z,100110.66
2023-09-24T14:46:21.328Z,100117.78
2023-09-24T14:48:48.120Z,100125.31
2023-09-24T14:51:18.994Z,100126.59
2023-09-24T14:53:46.170Z,100121.34
2023-09-24T14:56:19.715Z,100121.34
2023-09-24T14:58:46.300Z,100138.69
2023-09-24T15:01:12.926Z,100130.13
2023-09-24T15:03:39.931Z,100113.19
2023-09-24T15:06:06.531Z,100128.88
2023-09-24T15:08:34.041Z,100131.59
2023-09-24T15:11:04.474Z,100126.16
2023-09-24T15:13:31.652Z,100138.47
2023-09-24T15:15:58.192Z,100140.16
2023-09-24T15:18:24.929Z,100146.19
2023-09-24T15:20:52.329Z,100140.16
2023-09-24T15:23:19.400Z,100132.84
2023-09-24T15:25:46.731Z,100132.84
2023-09-24T15:28:14.212Z,100143.91
2023-09-24T15:30:43.788Z,100144.53
2023-09-24T15:33:11.147Z,100149.16
2023-09-24T15:35:38.341Z,100151.00
2023-09-24T15:38:07.936Z,100140.13
2023-09-24T15:40:36.071Z,100148.69
2023-09-24T15:43:07.384Z,100145.34
2023-09-24T15:45:34.715Z,100149.94
2023-09-24T15:48:04.925Z,100147.03
2023-09-24T15:50:33.325Z,100159.59
2023-09-24T15:53:00.356Z,100160.22
2023-09-24T15:55:27.043Z,100161.25
2023-09-24T15:57:53.574Z,100165.66
2023-09-24T16:00:20.738Z,100163.56
2023-09-24T16:02:47.622Z,100171.94
2023-09-24T16:05:14.943Z,100176.53
2023-09-24T16:07:41.895Z,100174.84
2023-09-24T16:10:09.236Z,100180.69
2023-09-24T16:12:36.354Z,100177.75
2023-09-24T16:15:03.047Z,100183.66
2023-09-24T16:17:30.963Z,100181.75
2023-09-24T16:19:57.866Z,100188.84
2023-09-24T16:22:24.662Z,100186.97
2023-09-24T16:24:54.942Z,100195.78
2023-09-24T16:27:23.195Z,100204.13
2023-09-24T16:29:51.688Z,100209.97
2023-09-24T16:32:19.474Z,100209.72
2023-09-24T16:34:46.906Z,100214.56
2023-09-24T16:37:13.531Z,100209.72
2023-09-24T16:39:40.250Z,100216.84
2023-09-24T16:42:07.058Z,100227.09
2023-09-24T16:44:34.092Z,100224.38
2023-09-24T16:47:02.424Z,100231.88
2023-09-24T16:49:31.283Z,100237.72
2023-09-24T16:51:58.489Z,100246.09
2023-09-24T16:54:27.193Z,100246.09
2023-09-24T16:56:54.408Z,100240.03
2023-09-24T16:59:21.474Z,100244.38
2023-09-24T17:01:48.924Z,100244.75
2023-09-24T17:04:15.720Z,100261.06
2023-09-24T17:06:42.452Z,100255.00
2023-09-24T17:09:10.572Z,100259.59
2023-09-24T17:11:37.396Z,100263.53
2023-09-24T17:14:04.183Z,100264.16
2023-09-24T17:16:31.055Z,100275.63
2023-09-24T17:18:57.655Z,100270.00
2023-09-24T17:21:24.523Z,100272.13
2023-09-24T17:23:51.375Z,100278.16
2023-09-24T17:26:19.354Z,100278.34
2023-09-24T17:28:45.913Z,100275.03
2023-09-24T17:31:13.450Z,100268.09
2023-09-24T17:33:40.953Z,100270.63
2023-09-24T17:36:10.767Z,100275.22
2023-09-24T17:38:38.256Z,100266.84
2023-09-24T17:41:04.826Z,100273.31
2023-09-24T17:43:31.603Z,100265.53
2023-09-24T17:46:08.232Z,100265.34
2023-09-24T17:48:38.721Z,100258.84
2023-09-24T17:51:07.510Z,100264.66
2023-09-24T17:53:34.883Z,100270.94
2023-09-24T17:56:03.226Z,100271.78
2023-09-24T17:58:30.131Z,100271.78
2023-09-24T18:01:15.858Z,100275.09
2023-09-24T18:03:44.805Z,100279.69
2023-09-24T18:06:12.773Z,100277.81
2023-09-24T18:08:39.586Z,100280.28
2023-09-24T18:11:06.309Z,100286.75
2023-09-24T18:13:33.282Z,100277.53
2023-09-24T18:16:00.991Z,100283.00
2023-09-24T18:18:29.072Z,100280.09
2023-09-24T18:20:57.969Z,100280.09
2023-09-24T18:23:25.652Z,100285.53
2023-09-24T18:25:52.571Z,100284.47
2023-09-24T18:28:19.579Z,100280.50
2023-09-24T18:30:47.228Z,100279.66
2023-09-24T18:33:14.563Z,100286.56
2023-09-24T18:35:42.708Z,100287.78
2023-09-24T18:38:10.289Z,100300.09
2023-09-24T18:40:40.050Z,100293.81
2023-09-24T18:43:07.411Z,100290.22
2023-09-24T18:45:35.228Z,100295.84
2023-09-24T18:48:02.216Z,100301.09
2023-09-24T18:50:29.845Z,100311.75
2023-09-24T18:52:56.738Z,100307.53
2023-09-24T18:55:23.827Z,100298.75
2023-09-24T18:57:50.367Z,100307.69
2023-09-24T19:00:16.988Z,100307.06
2023-09-24T19:02:48.990Z,100309.13
2023-09-24T19:05:17.228Z,100314.56
2023-09-24T19:07:44.274Z,100312.69
2023-09-24T19:10:15.578Z,100310.16
2023-09-24T19:12:48.732Z,100308.22
2023-09-24T19:15:17.113Z,100317.81
2023-09-24T19:17:44.849Z,100319.69
2023-09-24T19:20:12.141Z,100320.66
2023-09-24T19:22:38.794Z,100321.88
2023-09-24T19:25:05.723Z,100326.44
2023-09-24T19:27:32.324Z,100314.13
2023-09-24T19:29:59.951Z,100323.56
2023-09-24T19:32:27.514Z,100314.56
2023-09-24T19:34:54.566Z,100314.38
2023-09-24T19:37:21.212Z,100307.19
2023-09-24T19:39:47.850Z,100321.88
2023-09-24T19:42:14.464Z,100332.72
2023-09-24T19:44:41.165Z,100328.88
2023-09-24T19:47:07.872Z,100333.13
2023-09-24T19:49:34.531Z,100333.47
2023-09-24T19:52:01.041Z,100343.97
2023-09-24T19:54:29.239Z,100346.00
2023-09-24T19:56:56.197Z,100343.47
2023-09-24T19:59:22.833Z,100352.47
2023-09-24T20:01:49.306Z,100360.06
2023-09-24T20:04:15.869Z,100354.44
2023-09-24T20:06:42.783Z,100357.13
2023-09-24T20:09:10.762Z,100349.41
2023-09-24T20:11:40.356Z,100338.38
2023-09-24T20:14:09.669Z,100338.16
2023-09-24T20:16:36.284Z,100330.75
2023-09-24T20:19:05.254Z,100319.28
2023-09-24T20:21:33.152Z,100323.88
2023-09-24T20:24:00.535Z,100315.44
2023-09-24T20:26:27.199Z,100315.66
2023-09-24T20:28:53.754Z,100315.84
2023-09-24T20:31:21.432Z,100314.56
2023-09-24T20:36:18.105Z,100321.78
2023-09-24T20:38:44.768Z,100326.81
2023-09-24T20:41:14.792Z,100333.75
2023-09-24T20:43:42.061Z,100344.34
2023-09-24T20:46:11.235Z,100343.22
2023-09-24T20:48:37.816Z,100345.06
2023-09-24T20:51:04.358Z,100343.59
2023-09-24T20:53:31.259Z,100362.19
2023-09-24T20:55:57.782Z,100365.56
2023-09-24T20:58:24.372Z,100363.25
2023-09-24T21:00:52.056Z,100365.41
2023-09-24T21:03:18.792Z,100363.47
2023-09-24T21:05:45.329Z,100363.19
2023-09-24T21:08:11.794Z,100356.66
2023-09-24T21:10:39.500Z,100354.41
2023-09-24T21:13:06.000Z,100335.00
2023-09-24T21:15:32.506Z,100326.28
2023-09-24T21:17:59.122Z,100338.41
2023-09-24T21:20:25.884Z,100345.31
2023-09-24T21:22:52.389Z,100352.81
2023-09-24T21:25:18.922Z,100356.63
2023-09-24T21:27:45.873Z,100342.69
2023-09-24T21:30:12.930Z,100346.06
2023-09-24T21:32:39.558Z,100351.47
2023-09-24T21:35:06.282Z,100348.19
2023-09-24T21:37:32.867Z,100365.28
2023-09-24T21:39:59.427Z,100364.63
2023-09-24T21:42:25.950Z,100379.88
2023-09-24T21:44:52.538Z,100387.84
2023-09-24T21:47:19.063Z,100383.97
2023-09-24T21:49:45.532Z,100382.75
2023-09-24T21:52:12.660Z,100381.72
2023-09-24T21:54:39.231Z,100389.44
2023-09-24T21:57:05.789Z,100386.75
2023-09-24T21:59:32.342Z,100374.25
2023-09-24T22:01:58.995Z,100376.56
2023-09-24T22:04:25.672Z,100384.03
2023-09-24T22:06:52.436Z,100385.09
2023-09-24T22:09:19.285Z,100385.91
2023-09-24T22:11:46.132Z,100386.38
2023-09-24T22:14:13.779Z,100375.53
2023-09-24T22:16:41.026Z,100357.69
2023-09-24T22:19:07.925Z,100363.25
2023-09-24T22:21:34.851Z,100360.75
2023-09-24T22:24:01.978Z,100358.03
2023-09-24T22:26:28.837Z,100353.41
2023-09-24T22:28:55.309Z,100360.94
2023-09-24T22:31:21.846Z,100358.22
2023-09-24T22:33:48.525Z,100349.44
2023-09-24T22:36:18.994Z,100360.53
2023-09-24T22:38:45.808Z,100350.72
2023-09-24T22:41:12.536Z,100355.75
2023-09-24T22:43:39.007Z,100346.34
2023-09-24T22:46:05.574Z,100348.41
2023-09-24T22:48:32.101Z,100357.19
2023-09-24T22:50:59.028Z,100348.84
2023-09-24T22:53:26.038Z,100344.91
2023-09-24T22:55:52.780Z,100343.28
2023-09-24T22:58:19.333Z,100355.69
2023-09-24T23:00:47.478Z,100364.44
2023-09-24T23:03:14.188Z,100362.38
2023-09-24T23:05:41.783Z,100373.03
2023-09-24T23:08:08.652Z,100374.66
2023-09-24T23:10:35.327Z,100363.31
2023-09-24T23:13:01.902Z,100366.53
2023-09-24T23:15:28.401Z,100369.25
2023-09-24T23:17:54.944Z,100376.13
2023-09-24T23:20:21.623Z,100368.84
2023-09-24T23:22:51.092Z,100354.97
2023-09-24T23:25:20.427Z,100365.34
2023-09-24T23:27:47.629Z,100358.88
2023-09-24T23:30:14.386Z,100348.16
2023-09-24T23:32:42.214Z,100352.81
2023-09-24T23:35:09.318Z,100357.00
2023-09-24T23:37:35.983Z,100353.72
2023-09-24T23:40:05.030Z,100364.19
2023-09-24T23:42:31.926Z,100364.00
2023-09-24T23:44:58.451Z,100347.84
2023-09-24T23:47:27.898Z,100356.88
2023-09-24T23:49:54.505Z,100351.28
2023-09-24T23:52:20.999Z,100341.88
2023-09-24T23:54:48.188Z,100339.09
2023-09-24T23:57:14.779Z,100343.13
2023-09-24T23:59:41.436Z,100331.63
